Agate, North Dakota
Current Conditions -  °F | °C
As of 9:55 AM on Monday 26 Jan 2015 (Local Time) from K9D7 Reporting Station
Clear Clear  
Wind Chill: 26°   Ceiling: Unl
Heat Index: 37°   Visibility: 10mi
Dew Point: 32°   Wind: 25mph
Humidity: 81%   Direction: 330°NNW
Pressure: 29.81"   Gusts: 31mph
Location:  48.62°N, 99.5°W
Report Text: K9D7 261555Z AUTO 33022G27KT 10SM CLR 03/00 A2981 RMK AO2
Loading
Personal Weather Stations






























Interactive Weather Map New forecast layout! Learn more

10-Day Weather Forecast

Advertisements
Track Severe Weather on mobile